createdAt,value
2022-12-29T00:01:42.272Z,100060.25
2022-12-29T00:04:15.288Z,100058.56
2022-12-29T00:06:43.676Z,100056.53
2022-12-29T00:09:13.352Z,100035.47
2022-12-29T00:11:39.965Z,100042.56
2022-12-29T00:14:26.318Z,100023.41
2022-12-29T00:16:53.145Z,100028.13
2022-12-29T00:19:38.835Z,100028.97
2022-12-29T00:22:23.942Z,100019.59
2022-12-29T00:25:02.738Z,100017.19
2022-12-29T00:27:48.898Z,100013.69
2022-12-29T00:30:36.489Z,100011.03
2022-12-29T00:33:41.333Z,100000.56
2022-12-29T00:36:12.775Z,99992.38
2022-12-29T00:39:01.640Z,99991.66
2022-12-29T00:41:46.394Z,99990.56
2022-12-29T00:44:14.383Z,99987.19
2022-12-29T00:46:42.805Z,99982.25
2022-12-29T00:49:30.994Z,99973.22
2022-12-29T00:52:04.317Z,99971.66
2022-12-29T00:54:33.733Z,99960.59
2022-12-29T00:57:01.607Z,99954.56
2022-12-29T00:59:28.212Z,99943.38
2022-12-29T01:01:55.451Z,99951.56
2022-12-29T01:04:24.824Z,99964.81
2022-12-29T01:06:51.882Z,99959.78
2022-12-29T01:09:37.963Z,99947.00
2022-12-29T01:12:09.123Z,99940.25
2022-12-29T01:14:36.073Z,99932.41
2022-12-29T01:17:02.497Z,99929.53
2022-12-29T01:19:28.967Z,99933.50
2022-12-29T01:21:55.514Z,99920.00
2022-12-29T01:24:22.803Z,99930.84
2022-12-29T01:26:49.944Z,99921.94
2022-12-29T01:29:16.727Z,99913.03
2022-12-29T01:31:43.816Z,99912.69
2022-12-29T01:34:10.294Z,99936.16
2022-12-29T01:36:36.980Z,99927.47
2022-12-29T01:39:03.615Z,99907.97
2022-12-29T01:41:30.240Z,99936.66
2022-12-29T01:44:02.697Z,99921.94
2022-12-29T01:46:44.422Z,99927.22
2022-12-29T01:49:16.948Z,99926.25
2022-12-29T01:52:07.066Z,99929.41
2022-12-29T01:54:43.077Z,99925.41
2022-12-29T01:57:14.455Z,99931.81
2022-12-29T01:59:50.748Z,99938.78
2022-12-29T02:02:17.779Z,99933.75
2022-12-29T02:04:45.374Z,99937.09
2022-12-29T02:07:19.946Z,99942.41
2022-12-29T02:09:51.519Z,99932.78
2022-12-29T02:12:20.990Z,99926.88
2022-12-29T02:14:51.550Z,99923.03
2022-12-29T02:17:54.505Z,99938.81
2022-12-29T02:20:33.034Z,99924.84
2022-12-29T02:23:14.165Z,99930.16
2022-12-29T02:25:56.126Z,99940.97
2022-12-29T02:28:47.633Z,99952.41
2022-12-29T02:31:37.469Z,99937.69
2022-12-29T02:34:23.764Z,99940.47
2022-12-29T02:37:05.433Z,99949.25
2022-12-29T02:40:09.333Z,99950.81
2022-12-29T02:43:05.066Z,99938.19
2022-12-29T02:45:40.159Z,99946.00
2022-12-29T02:48:17.561Z,99939.53
2022-12-29T02:50:52.498Z,99943.84
2022-12-29T02:53:41.908Z,99932.28
2022-12-29T02:56:08.497Z,99933.50
2022-12-29T02:58:35.074Z,99937.34
2022-12-29T03:01:29.294Z,99933.16
2022-12-29T03:04:21.453Z,99931.34
2022-12-29T03:07:10.305Z,99932.31
2022-12-29T03:10:15.524Z,99947.31
2022-12-29T03:13:22.049Z,99948.88
2022-12-29T03:16:05.075Z,99944.50
2022-12-29T03:18:52.828Z,99950.16
2022-12-29T03:21:57.151Z,99950.97
2022-12-29T03:24:28.801Z,99959.25
2022-12-29T03:26:59.612Z,99952.16
2022-12-29T03:29:30.405Z,99946.63
2022-12-29T03:31:59.361Z,99956.47
2022-12-29T03:34:27.410Z,99954.19
2022-12-29T03:37:00.600Z,99952.16
2022-12-29T03:39:27.719Z,99946.50
2022-12-29T03:42:01.167Z,99952.41
2022-12-29T03:44:38.849Z,99947.00
2022-12-29T03:47:06.725Z,99948.34
2022-12-29T03:49:34.324Z,99949.91
2022-12-29T03:52:00.927Z,99935.25
2022-12-29T03:54:27.403Z,99941.16
2022-12-29T03:57:15.775Z,99948.72
2022-12-29T03:59:42.241Z,99957.03
2022-12-29T04:02:08.826Z,99944.50
2022-12-29T04:04:35.379Z,99945.72
2022-12-29T04:07:01.943Z,99961.69
2022-12-29T04:09:28.531Z,99948.47
2022-12-29T04:11:55.070Z,99960.50
2022-12-29T04:14:21.614Z,99965.44
2022-12-29T04:16:48.127Z,99953.66
2022-12-29T04:19:14.590Z,99957.16
2022-12-29T04:21:41.073Z,99961.63
2022-12-29T04:24:07.931Z,99957.53
2022-12-29T04:26:34.516Z,99952.22
2022-12-29T04:29:01.022Z,99959.56
2022-12-29T04:31:27.492Z,99964.38
2022-12-29T04:33:53.972Z,99965.31
2022-12-29T04:36:24.277Z,99960.63
2022-12-29T04:38:56.125Z,99961.69
2022-12-29T04:41:22.573Z,99965.06
2022-12-29T04:43:49.050Z,99961.81
2022-12-29T04:46:15.664Z,99958.81
2022-12-29T04:48:42.328Z,99973.25
2022-12-29T04:51:08.959Z,99967.69
2022-12-29T04:53:35.538Z,99977.50
2022-12-29T04:56:02.063Z,99963.09
2022-12-29T04:58:28.531Z,99959.03
2022-12-29T05:00:54.997Z,99958.41
2022-12-29T05:03:21.641Z,99956.63
2022-12-29T05:05:48.182Z,99970.34
2022-12-29T05:08:14.761Z,99965.75
2022-12-29T05:10:41.395Z,99966.81
2022-12-29T05:13:08.135Z,99976.41
2022-12-29T05:15:34.580Z,99968.94
2022-12-29T05:18:01.161Z,99967.00
2022-12-29T05:20:27.737Z,99963.28
2022-12-29T05:22:54.237Z,99975.94
2022-12-29T05:25:20.833Z,99974.75
2022-12-29T05:27:47.287Z,99981.84
2022-12-29T05:30:13.788Z,99988.94
2022-12-29T05:32:40.887Z,100000.81
2022-12-29T05:35:07.885Z,99986.97
2022-12-29T05:37:34.474Z,100002.38
2022-12-29T05:40:01.076Z,99997.31
2022-12-29T05:42:27.585Z,100003.44
2022-12-29T05:44:54.939Z,100003.91
2022-12-29T05:47:21.707Z,99987.09
2022-12-29T05:49:48.264Z,99994.91
2022-12-29T05:52:14.868Z,100006.31
2022-12-29T05:54:41.341Z,99987.97
2022-12-29T05:57:07.791Z,100002.22
2022-12-29T05:59:34.262Z,99997.91
2022-12-29T06:02:00.874Z,100008.88
2022-12-29T06:04:27.484Z,100012.50
2022-12-29T06:06:53.981Z,100009.34
2022-12-29T06:09:20.454Z,100015.47
2022-12-29T06:11:46.968Z,100015.69
2022-12-29T06:14:13.470Z,100021.31
2022-12-29T06:16:40.032Z,100024.56
2022-12-29T06:19:06.541Z,100021.16
2022-12-29T06:21:33.638Z,100012.03
2022-12-29T06:24:00.077Z,100030.09
2022-12-29T06:26:26.599Z,100025.53
2022-12-29T06:28:53.040Z,100017.22
2022-12-29T06:34:13.358Z,100033.34
2022-12-29T06:36:40.267Z,100049.31
2022-12-29T06:39:06.796Z,100056.28
2022-12-29T06:41:33.346Z,100048.47
2022-12-29T06:43:59.855Z,100049.31
2022-12-29T06:46:26.384Z,100055.44
2022-12-29T06:48:52.822Z,100033.84
2022-12-29T06:51:19.223Z,100052.81
2022-12-29T06:53:45.651Z,100062.53
2022-12-29T06:56:12.399Z,100048.38
2022-12-29T06:58:38.863Z,100049.00
2022-12-29T07:01:05.938Z,100038.88
2022-12-29T07:03:32.545Z,100051.22
2022-12-29T07:05:59.182Z,100060.63
2022-12-29T07:08:25.816Z,100055.22
2022-12-29T07:10:52.350Z,100040.56
2022-12-29T07:13:18.889Z,100035.88
2022-12-29T07:15:45.470Z,100032.84
2022-12-29T07:18:11.935Z,100041.22
2022-12-29T07:20:38.572Z,100030.75
2022-12-29T07:23:05.234Z,100055.28
2022-12-29T07:25:31.718Z,100050.94
2022-12-29T07:27:58.206Z,100043.13
2022-12-29T07:30:24.715Z,100046.50
2022-12-29T07:32:51.199Z,100055.78
2022-12-29T07:35:17.737Z,100043.19
2022-12-29T07:37:47.301Z,100051.75
2022-12-29T07:40:16.409Z,100052.91
2022-12-29T07:42:42.895Z,100047.75
2022-12-29T07:45:10.401Z,100054.72
2022-12-29T07:47:37.226Z,100041.41
2022-12-29T07:50:04.173Z,100064.13
2022-12-29T07:52:30.613Z,100072.16
2022-12-29T07:54:57.165Z,100073.34
2022-12-29T07:57:29.687Z,100060.75
2022-12-29T07:59:58.256Z,100060.13
2022-12-29T08:02:27.179Z,100068.78
2022-12-29T08:04:53.881Z,100060.75
2022-12-29T08:07:20.526Z,100060.97
2022-12-29T08:09:47.034Z,100055.28
2022-12-29T08:12:13.742Z,100072.53
2022-12-29T08:14:40.359Z,100068.53
2022-12-29T08:17:07.007Z,100078.06
2022-12-29T08:19:33.494Z,100073.31
2022-12-29T08:21:59.976Z,100072.69
2022-12-29T08:24:26.524Z,100069.94
2022-12-29T08:26:53.148Z,100077.75
2022-12-29T08:29:20.704Z,100079.53
2022-12-29T08:31:47.279Z,100086.34
2022-12-29T08:34:15.110Z,100072.06
2022-12-29T08:36:41.734Z,100079.03
2022-12-29T08:39:08.471Z,100076.38
2022-12-29T08:41:35.134Z,100080.81
2022-12-29T08:44:01.860Z,100091.38
2022-12-29T08:46:28.387Z,100085.53
2022-12-29T08:48:56.621Z,100100.44
2022-12-29T08:51:24.963Z,100098.13
2022-12-29T08:53:54.105Z,100088.41
2022-12-29T08:56:24.780Z,100102.88
2022-12-29T08:58:52.906Z,100097.38
2022-12-29T09:01:20.103Z,100112.41
2022-12-29T09:06:39.987Z,100121.13
2022-12-29T09:09:10.458Z,100111.94
2022-12-29T09:11:39.753Z,100111.72
2022-12-29T09:14:06.369Z,100108.47
2022-12-29T09:16:33.256Z,100116.47
2022-12-29T09:19:00.716Z,100119.13
2022-12-29T09:21:27.175Z,100126.41
2022-12-29T09:23:53.630Z,100125.25
2022-12-29T09:26:20.095Z,100124.81
2022-12-29T09:28:46.965Z,100141.19
2022-12-29T09:31:14.101Z,100139.41
2022-12-29T09:33:41.269Z,100144.47
2022-12-29T09:36:09.385Z,100160.31
2022-12-29T09:38:35.850Z,100163.06
2022-12-29T09:41:10.076Z,100170.25
2022-12-29T09:44:06.579Z,100170.03
2022-12-29T09:46:38.654Z,100175.72
2022-12-29T09:49:20.104Z,100176.16
2022-12-29T09:51:52.025Z,100193.69
2022-12-29T09:54:39.822Z,100195.41
2022-12-29T09:57:15.961Z,100203.50
2022-12-29T09:59:45.795Z,100199.50
2022-12-29T10:02:30.285Z,100208.88
2022-12-29T10:04:56.778Z,100211.31
2022-12-29T10:07:46.563Z,100217.28
2022-12-29T10:10:39.470Z,100225.09
2022-12-29T10:13:41.438Z,100221.28
2022-12-29T10:16:31.068Z,100222.03
2022-12-29T10:19:32.929Z,100240.72
2022-12-29T10:22:47.298Z,100240.47
2022-12-29T10:25:21.852Z,100236.78
2022-12-29T10:27:51.022Z,100252.41
2022-12-29T10:30:19.232Z,100247.03
2022-12-29T10:33:00.012Z,100255.38
2022-12-29T10:35:33.043Z,100265.50
2022-12-29T10:38:05.959Z,100271.44
2022-12-29T10:40:41.754Z,100273.88
2022-12-29T10:43:30.629Z,100278.72
2022-12-29T10:46:07.954Z,100287.41
2022-12-29T10:48:36.061Z,100287.09
2022-12-29T10:51:07.150Z,100287.19
2022-12-29T10:54:15.780Z,100298.41
2022-12-29T10:56:53.285Z,100303.69
2022-12-29T10:59:23.381Z,100311.28
2022-12-29T11:02:03.789Z,100314.47
2022-12-29T11:05:05.219Z,100320.09
2022-12-29T11:07:32.113Z,100320.41
2022-12-29T11:10:40.155Z,100333.53
2022-12-29T11:13:20.050Z,100334.38
2022-12-29T11:15:49.949Z,100325.69
2022-12-29T11:25:43.141Z,100341.13
2022-12-29T11:28:17.445Z,100350.44
2022-12-29T11:30:44.446Z,100333.22
2022-12-29T11:33:13.270Z,100341.16
2022-12-29T11:35:47.111Z,100343.38
2022-12-29T11:38:22.846Z,100374.69
2022-12-29T11:40:52.110Z,100376.78
2022-12-29T11:43:43.941Z,100377.22
2022-12-29T11:46:21.245Z,100381.88
2022-12-29T11:48:49.390Z,100391.25
2022-12-29T11:51:25.293Z,100388.31
2022-12-29T11:53:56.907Z,100390.13
2022-12-29T11:56:40.098Z,100392.34
2022-12-29T11:59:32.512Z,100402.06
2022-12-29T12:02:04.080Z,100408.75
2022-12-29T12:04:37.452Z,100410.84
2022-12-29T12:07:16.182Z,100415.72
2022-12-29T12:10:06.633Z,100406.41
2022-12-29T12:12:45.673Z,100415.41
2022-12-29T12:15:28.645Z,100411.81
2022-12-29T12:18:03.240Z,100409.47
2022-12-29T12:20:59.680Z,100419.44
2022-12-29T12:23:38.773Z,100412.56
2022-12-29T12:26:21.092Z,100420.69
2022-12-29T12:29:06.995Z,100418.16
2022-12-29T12:31:52.580Z,100426.19
2022-12-29T12:34:25.524Z,100421.84
2022-12-29T12:36:59.993Z,100426.31
2022-12-29T12:40:08.761Z,100420.38
2022-12-29T12:42:45.302Z,100425.47
2022-12-29T12:45:27.809Z,100424.50
2022-12-29T12:48:13.235Z,100429.47
2022-12-29T12:50:58.133Z,100456.88
2022-12-29T12:53:30.426Z,100442.47
2022-12-29T12:56:24.416Z,100448.19
2022-12-29T12:59:04.230Z,100459.19
2022-12-29T13:02:01.703Z,100461.31
2022-12-29T13:04:59.283Z,100456.22
2022-12-29T13:07:50.249Z,100462.06
2022-12-29T13:11:06.490Z,100443.53
2022-12-29T13:13:42.159Z,100463.00
2022-12-29T13:16:32.464Z,100470.19
2022-12-29T13:19:10.253Z,100477.19
2022-12-29T13:22:06.888Z,100472.09
2022-12-29T13:24:48.642Z,100480.88
2022-12-29T13:27:38.069Z,100494.84
2022-12-29T13:30:19.989Z,100485.00
2022-12-29T13:33:26.092Z,100485.41
2022-12-29T13:35:58.751Z,100483.09
2022-12-29T13:38:35.300Z,100491.66
2022-12-29T13:41:11.090Z,100496.75
2022-12-29T13:43:41.168Z,100498.34
2022-12-29T13:46:15.168Z,100485.53
2022-12-29T13:48:49.581Z,100494.09
2022-12-29T13:51:18.391Z,100488.06
2022-12-29T13:54:35.382Z,100485.81
2022-12-29T13:57:13.182Z,100497.25
2022-12-29T14:00:32.559Z,100476.69
2022-12-29T14:03:01.959Z,100477.34
2022-12-29T14:05:31.435Z,100484.25
2022-12-29T14:08:04.186Z,100488.78
2022-12-29T14:10:36.380Z,100488.31
2022-12-29T14:13:15.959Z,100494.25
2022-12-29T14:15:45.326Z,100500.56
2022-12-29T14:18:17.453Z,100487.16
2022-12-29T14:21:08.589Z,100496.88
2022-12-29T14:23:34.981Z,100497.84
2022-12-29T14:26:07.128Z,100486.03
2022-12-29T14:28:33.491Z,100501.06
2022-12-29T14:31:01.972Z,100505.88
2022-12-29T14:33:33.393Z,100505.75
2022-12-29T14:36:42.460Z,100490.75
2022-12-29T14:39:36.270Z,100510.09
2022-12-29T14:42:11.551Z,100514.53
2022-12-29T14:45:02.638Z,100505.22
2022-12-29T14:47:31.792Z,100507.75
2022-12-29T14:50:08.159Z,100507.22
2022-12-29T14:52:53.995Z,100506.44
2022-12-29T14:55:53.012Z,100515.22
2022-12-29T14:58:26.933Z,100503.63
2022-12-29T15:00:53.782Z,100495.16
2022-12-29T15:03:37.308Z,100513.34
2022-12-29T15:06:12.205Z,100513.00
2022-12-29T15:08:47.800Z,100508.03
2022-12-29T15:11:18.297Z,100511.50
2022-12-29T15:13:45.818Z,100508.88
2022-12-29T15:16:30.886Z,100516.16
2022-12-29T15:18:58.180Z,100513.59
2022-12-29T15:25:10.753Z,100524.31
2022-12-29T15:27:37.241Z,100511.78
2022-12-29T15:30:08.364Z,100508.50
2022-12-29T15:33:37.069Z,100503.22
2022-12-29T15:36:10.530Z,100535.00
2022-12-29T15:38:40.620Z,100521.41
2022-12-29T15:41:22.502Z,100522.91
2022-12-29T15:43:58.807Z,100536.50
2022-12-29T15:46:25.459Z,100542.22
2022-12-29T15:48:52.022Z,100542.78
2022-12-29T15:51:24.419Z,100540.19
2022-12-29T15:53:52.848Z,100543.75
2022-12-29T15:56:19.853Z,100549.59
2022-12-29T15:58:49.812Z,100545.84
2022-12-29T16:01:31.907Z,100549.41
2022-12-29T16:04:05.411Z,100548.56
2022-12-29T16:06:33.294Z,100544.22
2022-12-29T16:09:03.644Z,100548.94
2022-12-29T16:11:44.287Z,100563.75
2022-12-29T16:14:18.498Z,100558.94
2022-12-29T16:16:47.019Z,100566.28
2022-12-29T16:19:34.296Z,100560.44
2022-12-29T16:22:02.429Z,100571.56
2022-12-29T16:24:33.438Z,100574.47
2022-12-29T16:27:02.592Z,100571.66
2022-12-29T16:29:31.311Z,100575.41
2022-12-29T16:32:06.127Z,100570.13
2022-12-29T16:34:33.543Z,100578.81
2022-12-29T16:37:02.290Z,100581.56
2022-12-29T16:39:32.836Z,100566.38
2022-12-29T16:41:59.947Z,100575.69
2022-12-29T16:44:29.009Z,100576.09
2022-12-29T16:47:06.262Z,100590.69
2022-12-29T16:49:35.375Z,100584.47
2022-12-29T16:52:02.580Z,100598.13
2022-12-29T16:54:36.395Z,100608.88
2022-12-29T16:57:03.753Z,100608.97
2022-12-29T16:59:36.528Z,100611.03
2022-12-29T17:02:08.583Z,100627.44
2022-12-29T17:04:35.136Z,100623.38
2022-12-29T17:07:01.624Z,100631.78
2022-12-29T17:09:29.425Z,100637.91
2022-12-29T17:12:05.363Z,100632.72
2022-12-29T17:14:42.755Z,100629.78
2022-12-29T17:17:16.542Z,100653.31
2022-12-29T17:19:49.941Z,100646.75
2022-12-29T17:22:30.207Z,100643.09
2022-12-29T17:24:59.427Z,100647.38
2022-12-29T17:27:44.489Z,100660.56
2022-12-29T17:30:11.324Z,100663.22
2022-12-29T17:32:38.266Z,100667.38
2022-12-29T17:35:05.039Z,100667.63
2022-12-29T17:37:34.609Z,100677.56
2022-12-29T17:40:01.267Z,100678.50
2022-12-29T17:42:29.616Z,100693.75
2022-12-29T17:44:56.083Z,100681.75
2022-12-29T17:47:22.483Z,100689.81
2022-12-29T17:49:49.088Z,100681.91
2022-12-29T17:52:17.592Z,100682.09
2022-12-29T17:54:53.450Z,100688.03
2022-12-29T19:03:07.782Z,100764.66
2022-12-29T19:05:39.661Z,100762.97
2022-12-29T19:08:07.712Z,100770.03
2022-12-29T19:10:35.569Z,100771.72
2022-12-29T19:17:28.950Z,100779.09
2022-12-29T19:19:58.781Z,100776.63
2022-12-29T19:22:26.426Z,100782.75
2022-12-29T19:24:59.757Z,100780.13
2022-12-29T19:27:27.381Z,100780.53
2022-12-29T19:29:57.572Z,100785.72
2022-12-29T19:32:26.459Z,100783.31
2022-12-29T19:34:53.231Z,100779.69
2022-12-29T19:37:20.162Z,100789.38
2022-12-29T19:39:47.807Z,100789.13
2022-12-29T19:42:14.686Z,100796.25
2022-12-29T19:44:41.629Z,100799.06
2022-12-29T19:47:08.318Z,100801.59
2022-12-29T19:49:35.697Z,100789.44
2022-12-29T19:52:09.718Z,100798.66
2022-12-29T19:54:36.595Z,100805.84
2022-12-29T19:57:03.732Z,100804.84
2022-12-29T19:59:30.272Z,100804.94
2022-12-29T20:01:57.211Z,100810.81
2022-12-29T20:04:24.226Z,100812.28
2022-12-29T20:06:54.050Z,100817.47
2022-12-29T20:09:23.988Z,100808.00
2022-12-29T20:11:53.725Z,100798.00
2022-12-29T20:14:23.155Z,100808.63
2022-12-29T20:17:10.260Z,100805.91
2022-12-29T20:19:37.892Z,100808.69
2022-12-29T20:22:06.828Z,100802.66
2022-12-29T20:24:36.476Z,100805.34
2022-12-29T20:27:04.743Z,100810.47
2022-12-29T20:29:38.809Z,100810.38
2022-12-29T20:32:21.366Z,100820.06
2022-12-29T20:34:55.400Z,100829.94
2022-12-29T20:37:22.655Z,100823.66
2022-12-29T20:39:51.748Z,100832.97
2022-12-29T20:42:21.250Z,100822.66
2022-12-29T20:44:47.814Z,100827.06
2022-12-29T20:47:14.610Z,100825.19
2022-12-29T20:49:41.615Z,100834.44
2022-12-29T20:52:08.195Z,100836.38
2022-12-29T20:54:39.107Z,100847.00
2022-12-29T20:57:06.864Z,100844.63
2022-12-29T20:59:33.464Z,100852.84
2022-12-29T21:02:00.277Z,100880.03
2022-12-29T21:04:27.274Z,100868.56
2022-12-29T21:06:54.620Z,100868.97
2022-12-29T21:09:21.625Z,100876.94
2022-12-29T21:11:49.057Z,100875.63
2022-12-29T21:14:18.448Z,100878.47
2022-12-29T21:16:47.938Z,100875.00
2022-12-29T21:19:15.231Z,100877.09
2022-12-29T21:21:57.188Z,100874.53
2022-12-29T21:24:23.697Z,100874.94
2022-12-29T21:26:53.080Z,100875.84
2022-12-29T21:29:21.704Z,100884.50
2022-12-29T21:31:48.272Z,100899.31
2022-12-29T21:34:14.974Z,100897.59
2022-12-29T21:36:41.587Z,100904.06
2022-12-29T21:39:10.889Z,100907.00
2022-12-29T21:41:37.451Z,100907.84
2022-12-29T21:44:22.539Z,100906.84
2022-12-29T21:46:49.039Z,100908.72
2022-12-29T21:49:18.711Z,100914.91
2022-12-29T21:51:54.357Z,100918.59
2022-12-29T21:54:43.361Z,100930.13
2022-12-29T21:57:13.377Z,100926.56
2022-12-29T22:00:00.716Z,100935.41
2022-12-29T22:02:46.511Z,100942.53
2022-12-29T22:05:34.202Z,100944.28
2022-12-29T22:08:20.941Z,100947.84
2022-12-29T22:11:06.708Z,100948.94
2022-12-29T22:13:35.608Z,100957.59
2022-12-29T22:16:10.407Z,100965.50
2022-12-29T22:18:37.480Z,100976.19
2022-12-29T22:21:09.172Z,100987.34
2022-12-29T22:23:41.492Z,100991.31
2022-12-29T22:26:10.297Z,100989.75
2022-12-29T22:28:38.994Z,101004.41
2022-12-29T22:31:07.334Z,101003.41
2022-12-29T22:33:33.909Z,101007.69
2022-12-29T22:36:00.635Z,101017.22
2022-12-29T22:38:27.332Z,101018.16
2022-12-29T22:40:59.293Z,101015.22
2022-12-29T22:43:26.234Z,101021.91
2022-12-29T22:45:52.974Z,101025.41
2022-12-29T22:48:21.738Z,101022.78
2022-12-29T22:50:48.493Z,101017.78
2022-12-29T22:53:15.210Z,101028.97
2022-12-29T22:55:41.856Z,101023.19
2022-12-29T22:58:08.447Z,101025.81
2022-12-29T23:00:35.123Z,101033.09
2022-12-29T23:03:01.952Z,101032.81
2022-12-29T23:05:28.528Z,101042.06
2022-12-29T23:07:55.331Z,101046.38
2022-12-29T23:10:21.894Z,101050.09
2022-12-29T23:12:48.841Z,101048.53
2022-12-29T23:15:15.652Z,101044.31
2022-12-29T23:17:42.167Z,101053.22
2022-12-29T23:20:09.367Z,101062.81
2022-12-29T23:22:35.972Z,101063.59
2022-12-29T23:25:02.883Z,101062.91
2022-12-29T23:27:29.477Z,101068.44
2022-12-29T23:29:55.961Z,101070.78
2022-12-29T23:32:25.603Z,101073.28
2022-12-29T23:34:52.096Z,101076.06
2022-12-29T23:37:18.843Z,101072.34
2022-12-29T23:39:45.312Z,101082.69
2022-12-29T23:42:12.321Z,101070.72
2022-12-29T23:44:41.617Z,101080.97
2022-12-29T23:47:08.422Z,101076.78
2022-12-29T23:49:35.128Z,101082.81
2022-12-29T23:52:01.740Z,101080.53
2022-12-29T23:54:28.233Z,101081.47
2022-12-29T23:56:54.816Z,101078.81
2022-12-29T23:59:21.521Z,101095.53
